createdAt,value
2023-01-10T00:00:27.580Z,99930.00
2023-01-10T00:06:29.791Z,99930.00
2023-01-10T00:12:50.739Z,99918.00
2023-01-10T00:18:53.093Z,99912.00
2023-01-10T00:24:55.251Z,99914.00
2023-01-10T00:31:01.809Z,99930.00
2023-01-10T00:37:04.142Z,99930.00
2023-01-10T00:43:24.645Z,99937.00
2023-01-10T00:49:26.779Z,99945.00
2023-01-10T00:55:29.132Z,99946.00
2023-01-10T01:01:31.440Z,99944.00
2023-01-10T01:07:33.826Z,99929.00
2023-01-10T01:13:36.683Z,99919.00
2023-01-10T01:19:38.753Z,99902.00
2023-01-10T01:25:41.493Z,99885.00
2023-01-10T01:31:43.728Z,99897.00
2023-01-10T01:37:45.890Z,99902.00
2023-01-10T01:44:03.686Z,99890.00
2023-01-10T01:50:06.067Z,99891.00
2023-01-10T01:56:18.192Z,99874.00
2023-01-10T02:02:26.357Z,99878.00
2023-01-10T02:08:28.503Z,99870.00
2023-01-10T02:14:32.216Z,99864.00
2023-01-10T02:20:49.369Z,99876.00
2023-01-10T02:27:15.006Z,99874.00
2023-01-10T02:33:44.326Z,99863.00
2023-01-10T02:39:59.694Z,99869.00
2023-01-10T02:46:07.774Z,99882.00
2023-01-10T02:52:11.048Z,99868.00
2023-01-10T02:58:23.800Z,99863.00
2023-01-10T03:04:28.714Z,99862.00
2023-01-10T03:10:37.805Z,99859.00
2023-01-10T03:16:44.410Z,99860.00
2023-01-10T03:22:47.909Z,99851.00
2023-01-10T03:28:56.689Z,99867.00
2023-01-10T03:35:02.256Z,99847.00
2023-01-10T03:41:10.519Z,99861.00
2023-01-10T03:47:38.109Z,99864.00
2023-01-10T03:53:40.570Z,99859.00
2023-01-10T03:59:42.865Z,99860.00
2023-01-10T04:05:45.120Z,99851.00
2023-01-10T04:11:47.588Z,99835.00
2023-01-10T04:17:49.694Z,99834.00
2023-01-10T04:23:51.739Z,99826.00
2023-01-10T04:29:53.843Z,99827.00
2023-01-10T04:35:56.413Z,99824.00
2023-01-10T04:41:58.552Z,99802.00
2023-01-10T04:48:01.009Z,99818.00
2023-01-10T04:54:03.171Z,99778.00
2023-01-10T05:00:08.008Z,99794.00
2023-01-10T05:06:10.947Z,99781.00
2023-01-10T05:12:13.355Z,99795.00
2023-01-10T05:18:15.671Z,99804.00
2023-01-10T05:24:17.878Z,99823.00
2023-01-10T05:30:20.058Z,99822.00
2023-01-10T05:36:22.479Z,99804.00
2023-01-10T05:42:24.980Z,99778.00
2023-01-10T05:48:27.049Z,99803.00
2023-01-10T05:54:30.103Z,99821.00
2023-01-10T06:00:32.216Z,99813.00
2023-01-10T06:06:34.765Z,99808.00
2023-01-10T06:12:39.146Z,99787.00
2023-01-10T06:18:41.358Z,99790.00
2023-01-10T06:24:43.634Z,99780.00
2023-01-10T06:30:45.750Z,99797.00
2023-01-10T06:36:47.902Z,99810.00
2023-01-10T06:42:50.771Z,99828.00
2023-01-10T06:48:53.074Z,99827.00
2023-01-10T06:54:55.293Z,99813.00
2023-01-10T07:00:57.572Z,99819.00
2023-01-10T07:06:59.788Z,99833.00
2023-01-10T07:13:01.974Z,99821.00
2023-01-10T07:19:04.323Z,99802.00
2023-01-10T07:25:06.988Z,99813.00
2023-01-10T07:31:10.704Z,99819.00
2023-01-10T07:37:12.918Z,99807.00
2023-01-10T07:43:15.489Z,99826.00
2023-01-10T07:49:17.516Z,99821.00
2023-01-10T07:55:19.908Z,99829.00
2023-01-10T08:01:22.301Z,99826.00
2023-01-10T08:07:24.718Z,99824.00
2023-01-10T08:13:27.318Z,99828.00
2023-01-10T08:19:29.616Z,99826.00
2023-01-10T08:25:31.934Z,99817.00
2023-01-10T08:31:34.414Z,99797.00
2023-01-10T08:37:36.735Z,99803.00
2023-01-10T08:43:40.261Z,99819.00
2023-01-10T08:49:42.303Z,99818.00
2023-01-10T08:55:44.306Z,99811.00
2023-01-10T09:01:46.809Z,99785.00
2023-01-10T09:07:49.259Z,99795.00
2023-01-10T09:13:51.778Z,99826.00
2023-01-10T09:19:54.056Z,99820.00
2023-01-10T09:25:58.293Z,99809.00
2023-01-10T09:32:00.771Z,99796.00
2023-01-10T09:38:04.104Z,99778.00
2023-01-10T09:44:10.572Z,99766.00
2023-01-10T09:50:30.601Z,99759.00
2023-01-10T09:56:34.135Z,99737.00
2023-01-10T10:02:46.044Z,99715.00
2023-01-10T10:08:48.566Z,99728.00
2023-01-10T10:15:27.442Z,99723.00
2023-01-10T10:21:45.847Z,99732.00
2023-01-10T10:28:02.826Z,99732.00
2023-01-10T10:34:42.006Z,99714.00
2023-01-10T10:40:47.144Z,221634.00
2023-01-10T10:46:49.662Z,214800.00
2023-01-10T10:52:51.947Z,214604.00
2023-01-10T10:58:57.360Z,214510.00
2023-01-10T11:05:09.359Z,214515.00
2023-01-10T11:11:30.916Z,214578.00
2023-01-10T11:17:41.312Z,214618.00
2023-01-10T11:23:49.593Z,214612.00
2023-01-10T11:29:56.646Z,214640.00
2023-01-10T11:36:10.723Z,214648.00
2023-01-10T11:42:39.299Z,214681.00
2023-01-10T11:49:08.091Z,214737.00
2023-01-10T11:55:11.519Z,214745.00
2023-01-10T12:01:36.572Z,214681.00
2023-01-10T12:08:06.471Z,214634.00
2023-01-10T12:14:20.729Z,214640.00
2023-01-10T12:20:23.996Z,214618.00
2023-01-10T12:26:30.187Z,214703.00
2023-01-10T12:32:41.436Z,214695.00
2023-01-10T12:39:04.057Z,214711.00
2023-01-10T12:45:15.157Z,214737.00
2023-01-10T12:51:21.397Z,214793.00
2023-01-10T12:57:32.621Z,214833.00
2023-01-10T13:03:35.711Z,214808.00
2023-01-10T13:09:39.146Z,214833.00
2023-01-10T13:16:23.833Z,214833.00
2023-01-10T13:22:26.203Z,214827.00
2023-01-10T13:28:30.071Z,214841.00
2023-01-10T13:34:36.204Z,214800.00
2023-01-10T13:40:41.493Z,214779.00
2023-01-10T13:46:50.199Z,214793.00
2023-01-10T13:53:16.306Z,214773.00
2023-01-10T13:59:42.922Z,214681.00
2023-01-10T14:05:48.715Z,214681.00
2023-01-10T14:11:58.244Z,214612.00
2023-01-10T14:18:16.086Z,214531.00
2023-01-10T14:24:45.704Z,214466.00
2023-01-10T14:31:05.434Z,214404.00
2023-01-10T14:37:29.088Z,214376.00
2023-01-10T14:43:37.973Z,214321.00
2023-01-10T14:49:51.676Z,214321.00
2023-01-10T14:55:53.982Z,214260.00
2023-01-10T15:01:59.383Z,214219.00
2023-01-10T15:08:22.095Z,214205.00
2023-01-10T15:14:26.598Z,214191.00
2023-01-10T15:20:29.124Z,214183.00
2023-01-10T15:26:33.769Z,214169.00
2023-01-10T15:32:41.492Z,214169.00
2023-01-10T15:38:47.121Z,214185.00
2023-01-10T15:44:55.628Z,214155.00
2023-01-10T15:51:26.813Z,214149.00
2023-01-10T15:57:33.196Z,214141.00
2023-01-10T16:03:48.981Z,214092.00
2023-01-10T16:09:57.005Z,214078.00
2023-01-10T16:16:00.528Z,214058.00
2023-01-10T16:22:02.971Z,214025.00
2023-01-10T16:28:06.221Z,213997.00
2023-01-10T16:34:09.313Z,213975.00
2023-01-10T16:40:27.898Z,213950.00
2023-01-10T16:46:30.598Z,213928.00
2023-01-10T16:52:32.596Z,213934.00
2023-01-10T16:58:35.061Z,213922.00
2023-01-10T17:04:37.676Z,213934.00
2023-01-10T17:10:39.799Z,213928.00
2023-01-10T17:16:41.989Z,213956.00
2023-01-10T17:22:44.615Z,213983.00
2023-01-10T17:28:48.667Z,214003.00
2023-01-10T17:34:50.834Z,214003.00
2023-01-10T17:40:54.746Z,214033.00
2023-01-10T17:46:57.369Z,214099.00
2023-01-10T17:52:59.488Z,214169.00
2023-01-10T17:59:01.518Z,214205.00
2023-01-10T18:05:03.787Z,214252.00
2023-01-10T18:11:05.838Z,214363.00
2023-01-10T18:17:11.509Z,214474.00
2023-01-10T18:23:25.105Z,214496.00
2023-01-10T18:29:27.296Z,214531.00
2023-01-10T18:35:30.454Z,214626.00
2023-01-10T18:41:32.702Z,214634.00
2023-01-10T18:47:35.651Z,214545.00
2023-01-10T18:53:37.769Z,214446.00
2023-01-10T18:59:39.956Z,214418.00
2023-01-10T19:05:42.596Z,214384.00
2023-01-10T19:11:44.613Z,214363.00
2023-01-10T19:17:46.901Z,214341.00
2023-01-10T19:23:51.570Z,214363.00
2023-01-10T19:29:53.816Z,214390.00
2023-01-10T19:35:56.111Z,214432.00
2023-01-10T19:41:58.205Z,214432.00
2023-01-10T19:48:00.396Z,214446.00
2023-01-10T19:54:02.978Z,214446.00
2023-01-10T20:00:06.210Z,214474.00
2023-01-10T20:06:21.232Z,214502.00
2023-01-10T20:12:23.773Z,214523.00
2023-01-10T20:18:26.509Z,214545.00
2023-01-10T20:24:28.960Z,214551.00
2023-01-10T20:30:31.022Z,214584.00
2023-01-10T20:36:33.109Z,214598.00
2023-01-10T20:42:35.177Z,214598.00
2023-01-10T20:48:38.461Z,214598.00
2023-01-10T20:54:40.504Z,214570.00
2023-01-10T21:00:42.712Z,214584.00
2023-01-10T21:06:45.141Z,214634.00
2023-01-10T21:12:47.195Z,214648.00
2023-01-10T21:18:49.405Z,214681.00
2023-01-10T21:24:52.532Z,214681.00
2023-01-10T21:30:54.984Z,214681.00
2023-01-10T21:36:57.373Z,214648.00
2023-01-10T21:43:00.367Z,214618.00
2023-01-10T21:49:02.881Z,214634.00
2023-01-10T21:55:06.310Z,214648.00
2023-01-10T22:01:08.483Z,214667.00
2023-01-10T22:07:10.795Z,214578.00
2023-01-10T22:13:12.960Z,214515.00
2023-01-10T22:19:15.579Z,214460.00
2023-01-10T22:25:17.567Z,214438.00
2023-01-10T22:31:19.659Z,214446.00
2023-01-10T22:37:21.642Z,214390.00
2023-01-10T22:43:23.747Z,214384.00
2023-01-10T22:49:25.921Z,214321.00
2023-01-10T22:55:28.116Z,214244.00
2023-01-10T23:01:30.357Z,214191.00
2023-01-10T23:07:32.483Z,214155.00
2023-01-10T23:13:35.069Z,214113.00
2023-01-10T23:19:37.184Z,214033.00
2023-01-10T23:25:39.541Z,214025.00
2023-01-10T23:31:41.818Z,213997.00
2023-01-10T23:37:43.866Z,213956.00
2023-01-10T23:43:46.344Z,213956.00
2023-01-10T23:49:48.379Z,213908.00
2023-01-10T23:55:50.979Z,213900.00
